Time;durP1;ratioP1;P1;durP2;ratioP2;P2;SDS_P1;SDS_P2;PMS_P1;PMS_P2;Temp;Humidity;BMP_temperature;BMP_pressure;BME280_temperature;BME280_humidity;BME280_pressure;Samples;Min_cycle;Max_cycle;Signal;HPM_P1;HPM_P2
2022/01/20 00:00:13;;;;;;;30.00;11.20;;;;;;;1.81;77.93;99893.81;105938;1271;505119;-58
2022/01/20 00:03:11;;;;;;;29.50;10.90;;;;;;;1.83;77.93;99892.50;106614;1271;22655;-58
2022/01/20 00:06:16;;;;;;;25.00;9.80;;;;;;;1.85;77.80;99887.52;106628;1271;22620;-57
2022/01/20 00:08:49;;;;;;;29.20;10.70;;;;;;;1.86;77.88;99887.25;106634;1271;22576;-57
2022/01/20 00:28:20;;;;;;;27.60;10.80;;;;;;;1.88;77.94;99856.54;106245;1272;22576;-57
2022/01/20 00:30:57;;;;;;;27.00;9.80;;;;;;;1.87;77.93;99852.46;106192;1274;24211;-58
2022/01/20 00:33:35;;;;;;;22.70;8.40;;;;;;;1.87;77.86;99849.71;106124;1275;23016;-58
2022/01/20 00:38:57;;;;;;;27.90;9.60;;;;;;;1.88;77.92;99847.96;106281;1274;24449;-59
2022/01/20 00:41:28;;;;;;;29.70;10.60;;;;;;;1.88;77.93;99854.65;106398;1274;24270;-57
2022/01/20 00:44:00;;;;;;;27.20;10.60;;;;;;;1.88;77.81;99848.66;106476;1274;22546;-58
2022/01/20 00:46:31;;;;;;;34.50;12.60;;;;;;;1.90;77.87;99848.39;106360;1274;22536;-57
2022/01/20 00:49:02;;;;;;;24.60;9.20;;;;;;;1.91;77.96;99853.23;106295;1274;24956;-52
2022/01/20 00:51:33;;;;;;;33.40;12.10;;;;;;;1.91;77.96;99854.64;106473;1270;22871;-57
2022/01/20 00:54:04;;;;;;;28.90;10.80;;;;;;;1.92;77.90;99855.27;106587;1270;24172;-57
2022/01/20 00:56:35;;;;;;;28.00;10.70;;;;;;;1.93;77.96;99850.36;106720;1270;22544;-58
2022/01/20 00:59:07;;;;;;;27.10;9.00;;;;;;;1.94;77.93;99850.17;106695;1271;22553;-59
2022/01/20 01:01:38;;;;;;;25.90;9.60;;;;;;;1.95;77.76;99847.94;106713;1271;22729;-58
2022/01/20 01:04:10;;;;;;;23.80;8.50;;;;;;;1.97;77.68;99846.30;106708;1271;25333;-59
2022/01/20 01:07:02;;;;;;;20.70;7.10;;;;;;;1.98;77.66;99844.88;106731;1271;22479;-58
2022/01/20 01:09:34;;;;;;;20.60;7.80;;;;;;;2.01;77.63;99843.70;106610;1271;22640;-58
2022/01/20 01:12:08;;;;;;;21.90;7.60;;;;;;;2.02;77.72;99843.74;106768;1271;22558;-59
2022/01/20 01:14:44;;;;;;;22.60;7.60;;;;;;;2.04;77.69;99843.79;106684;1271;23956;-58
2022/01/20 01:20:14;;;;;;;22.10;6.40;;;;;;;2.06;77.70;99843.73;106679;1271;24316;-57
2022/01/20 01:22:45;;;;;;;18.60;6.60;;;;;;;2.08;77.78;99848.32;106681;1271;22787;-59
2022/01/20 01:25:16;;;;;;;19.10;7.30;;;;;;;2.10;77.87;99844.59;106693;1271;22576;-57
2022/01/20 01:27:47;;;;;;;19.50;7.00;;;;;;;2.10;78.13;99841.60;106699;1271;24233;-56
2022/01/20 01:30:38;;;;;;;17.10;5.90;;;;;;;2.07;78.57;99843.39;106722;1271;22551;-56
2022/01/20 01:33:09;;;;;;;17.00;5.10;;;;;;;2.04;78.66;99841.58;106733;1271;22593;-59
2022/01/20 01:35:42;;;;;;;20.10;6.80;;;;;;;2.02;78.82;99836.92;106761;1271;25389;-55
2022/01/20 01:38:35;;;;;;;16.70;5.70;;;;;;;2.01;78.92;99836.01;106614;1271;22680;-61
2022/01/20 01:41:11;;;;;;;17.70;5.90;;;;;;;1.99;78.99;99834.94;106967;1271;22647;-60
2022/01/20 01:43:45;;;;;;;18.30;5.40;;;;;;;1.97;79.18;99841.59;107240;1271;25885;-57
2022/01/20 01:46:17;;;;;;;18.30;6.10;;;;;;;1.96;79.40;99843.35;106696;1271;24257;-59
2022/01/20 01:48:48;;;;;;;16.20;4.20;;;;;;;1.93;79.61;99837.52;106797;1270;25318;-57
2022/01/20 01:51:20;;;;;;;18.70;6.10;;;;;;;1.92;79.67;99834.10;106585;1271;22674;-57
2022/01/20 01:53:51;;;;;;;19.90;6.10;;;;;;;1.91;79.92;99829.41;106800;1271;22563;-58
2022/01/20 01:56:22;;;;;;;19.90;6.10;;;;;;;1.89;80.08;99819.92;106691;1271;23996;-60
2022/01/20 01:58:55;;;;;;;15.70;4.70;;;;;;;1.88;80.27;99814.85;106817;1271;24324;-59
2022/01/20 02:01:31;;;;;;;18.20;5.10;;;;;;;1.88;80.47;99815.73;106761;1271;22535;-59
2022/01/20 02:04:12;;;;;;;15.90;5.70;;;;;;;1.86;80.56;99811.36;106702;1271;22787;-58
2022/01/20 02:07:10;;;;;;;14.50;5.60;;;;;;;1.86;80.61;99807.11;106706;1271;25393;-58
2022/01/20 02:18:25;;;;;;;15.00;4.90;;;;;;;1.85;80.97;99793.45;106691;1271;22531;-58
2022/01/20 02:20:56;;;;;;;21.90;6.60;;;;;;;1.87;80.89;99787.20;106663;1271;22552;-57
2022/01/20 02:23:28;;;;;;;16.60;3.50;;;;;;;1.88;81.01;99781.90;106679;1271;22586;-58
2022/01/20 02:25:59;;;;;;;14.10;4.70;;;;;;;1.91;81.13;99780.56;106802;1271;25391;-57
2022/01/20 02:28:30;;;;;;;16.50;4.90;;;;;;;1.94;81.09;99776.40;106811;1271;25351;-59
2022/01/20 02:31:01;;;;;;;12.20;3.20;;;;;;;1.96;81.18;99776.18;106808;1271;22531;-58
2022/01/20 02:33:33;;;;;;;8.00;2.20;;;;;;;2.01;81.47;99771.58;106614;1272;22538;-59
2022/01/20 02:36:10;;;;;;;6.50;1.80;;;;;;;2.10;81.51;99773.39;106609;1271;22612;-57
2022/01/20 02:38:46;;;;;;;6.10;1.30;;;;;;;2.18;81.67;99768.77;106622;1271;22795;-57
2022/01/20 02:46:55;;;;;;;3.20;0.90;;;;;;;2.44;81.41;99754.20;106688;1271;22691;-59
2022/01/20 02:49:26;;;;;;;5.30;1.10;;;;;;;2.52;81.50;99745.89;106607;1271;22866;-57
2022/01/20 02:51:58;;;;;;;6.90;1.30;;;;;;;2.61;81.63;99744.61;106541;1271;22563;-58
2022/01/20 02:54:30;;;;;;;5.40;1.30;;;;;;;2.67;81.63;99745.30;106648;1271;23928;-55
2022/01/20 02:57:01;;;;;;;5.00;0.90;;;;;;;2.71;81.81;99742.44;106614;1271;22715;-61
2022/01/20 02:59:34;;;;;;;3.70;1.10;;;;;;;2.72;81.96;99750.88;106597;1271;22652;-55
2022/01/20 03:02:08;;;;;;;4.20;0.90;;;;;;;2.73;82.18;99746.63;106638;1271;22600;-58
2022/01/20 03:04:40;;;;;;;4.40;1.00;;;;;;;2.71;82.45;99747.77;106686;1270;22556;-55
2022/01/20 03:07:12;;;;;;;4.40;0.90;;;;;;;2.68;82.77;99741.73;106637;1271;22542;-58
2022/01/20 03:09:43;;;;;;;4.40;0.90;;;;;;;2.65;82.72;99737.48;106670;1271;24233;-54
2022/01/20 03:12:14;;;;;;;4.20;0.80;;;;;;;2.63;82.88;99736.59;106640;1271;22538;-57
2022/01/20 03:14:45;;;;;;;4.20;0.90;;;;;;;2.62;83.15;99736.56;106773;1270;24228;-58
2022/01/20 03:17:17;;;;;;;5.20;1.00;;;;;;;2.62;83.10;99741.11;106556;1271;22539;-58
2022/01/20 03:19:48;;;;;;;4.30;1.00;;;;;;;2.63;83.16;99738.49;106643;1271;24080;-54
2022/01/20 03:22:19;;;;;;;3.30;0.90;;;;;;;2.64;83.44;99736.97;106647;1271;24131;-56
2022/01/20 03:24:51;;;;;;;5.30;1.00;;;;;;;2.65;83.62;99730.02;106611;1270;25257;-57
2022/01/20 03:27:22;;;;;;;5.20;1.00;;;;;;;2.66;83.37;99727.23;106731;1271;25707;-59
2022/01/20 03:29:53;;;;;;;3.10;0.90;;;;;;;2.66;83.67;99727.61;106652;1271;22548;-57
2022/01/20 03:32:24;;;;;;;4.90;1.20;;;;;;;2.68;83.77;99723.69;106708;1271;23080;-59
2022/01/20 03:34:55;;;;;;;3.20;0.80;;;;;;;2.71;83.58;99722.19;106596;1271;24003;-59
2022/01/20 03:37:27;;;;;;;5.70;1.00;;;;;;;2.72;83.53;99724.27;106624;1271;22588;-58
2022/01/20 03:39:58;;;;;;;4.80;1.00;;;;;;;2.74;83.50;99724.08;106672;1270;23886;-57
2022/01/20 03:42:29;;;;;;;3.20;0.90;;;;;;;2.74;83.50;99723.91;106596;1271;25372;-56
2022/01/20 03:45:00;;;;;;;4.00;1.20;;;;;;;2.75;83.57;99725.45;106673;1271;22662;-57
2022/01/20 03:47:31;;;;;;;3.70;0.70;;;;;;;2.77;83.50;99712.09;106566;1271;22717;-58
2022/01/20 03:50:10;;;;;;;4.20;1.00;;;;;;;2.78;83.43;99715.84;106643;1271;22581;-59
2022/01/20 03:52:41;;;;;;;5.30;1.20;;;;;;;2.80;83.41;99713.19;106774;1271;22600;-58
2022/01/20 03:55:14;;;;;;;5.30;1.00;;;;;;;2.81;83.37;99717.41;106812;1271;22551;-56
2022/01/20 03:57:45;;;;;;;3.80;1.00;;;;;;;2.82;83.39;99713.74;106702;1271;25384;-58
2022/01/20 04:00:17;;;;;;;5.40;1.10;;;;;;;2.84;83.27;99715.18;106572;1271;22548;-61
2022/01/20 04:02:48;;;;;;;7.20;1.20;;;;;;;2.85;83.28;99718.30;106724;1271;23019;-55
2022/01/20 04:05:19;;;;;;;5.00;1.20;;;;;;;2.87;83.23;99715.86;106536;1271;24255;-58
2022/01/20 04:07:50;;;;;;;5.90;1.10;;;;;;;2.88;83.06;99716.85;106662;1271;22575;-60
2022/01/20 04:10:21;;;;;;;6.00;1.20;;;;;;;2.90;83.08;99720.12;106697;1271;22594;-59
2022/01/20 04:12:52;;;;;;;6.30;0.80;;;;;;;2.91;82.94;99715.61;106564;1271;22567;-58
2022/01/20 04:15:28;;;;;;;6.80;1.30;;;;;;;2.91;82.83;99717.73;106594;1271;25483;-59
2022/01/20 04:18:02;;;;;;;7.60;1.40;;;;;;;2.93;82.83;99718.55;106530;1271;25384;-59
2022/01/20 04:20:33;;;;;;;4.20;0.90;;;;;;;2.93;82.74;99723.64;107481;1270;25420;-59
2022/01/20 04:23:04;;;;;;;6.70;1.40;;;;;;;2.94;82.66;99723.61;107101;1271;22640;-60
2022/01/20 04:25:36;;;;;;;5.00;0.90;;;;;;;2.95;82.69;99728.88;106756;1271;22480;-58
2022/01/20 04:28:08;;;;;;;5.00;0.90;;;;;;;2.96;82.66;99734.73;106493;1270;25260;-58
2022/01/20 04:30:39;;;;;;;6.10;1.10;;;;;;;2.97;82.53;99736.05;106404;1271;22550;-60
2022/01/20 04:33:10;;;;;;;6.60;1.40;;;;;;;2.97;82.54;99734.80;106379;1271;22557;-58
2022/01/20 04:35:41;;;;;;;7.10;1.50;;;;;;;2.96;82.58;99723.35;106633;1270;24152;-58
2022/01/20 04:38:12;;;;;;;5.50;1.00;;;;;;;2.94;82.51;99727.86;106717;1271;25421;-58
2022/01/20 04:40:44;;;;;;;5.80;0.90;;;;;;;2.92;82.35;99726.59;106592;1271;24207;-56
2022/01/20 04:43:15;;;;;;;11.50;1.80;;;;;;;2.91;82.26;99731.75;106784;1271;24835;-55
2022/01/20 04:45:52;;;;;;;7.50;1.20;;;;;;;2.89;82.18;99730.96;106658;1271;23198;-58
2022/01/20 04:48:31;;;;;;;13.30;1.40;;;;;;;2.87;82.03;99738.56;106622;1270;25264;-58
2022/01/20 04:59:30;;;;;;;10.00;0.80;;;;;;;2.83;81.69;99720.10;106745;1270;23820;-58
2022/01/20 05:02:01;;;;;;;10.00;1.30;;;;;;;2.82;81.60;99715.40;106653;1271;25754;-57
2022/01/20 05:04:33;;;;;;;8.00;0.90;;;;;;;2.81;81.61;99725.67;106638;1271;22559;-57
2022/01/20 05:07:06;;;;;;;11.00;0.90;;;;;;;2.80;81.65;99729.89;106807;1271;24388;-60
2022/01/20 05:09:38;;;;;;;9.90;1.20;;;;;;;2.79;81.52;99737.94;106809;1271;25302;-58
2022/01/20 05:12:13;;;;;;;14.90;1.90;;;;;;;2.78;81.43;99752.38;106637;1271;22549;-58
2022/01/20 05:14:44;;;;;;;9.20;1.30;;;;;;;2.78;81.32;99749.14;106666;1270;24237;-58
2022/01/20 05:17:15;;;;;;;11.30;1.30;;;;;;;2.79;81.31;99751.25;106631;1271;22567;-57
2022/01/20 05:19:46;;;;;;;11.20;1.40;;;;;;;2.79;81.19;99755.67;106621;1271;22535;-57
2022/01/20 05:22:17;;;;;;;12.20;1.30;;;;;;;2.79;81.03;99751.64;106580;1271;22597;-57
2022/01/20 05:24:49;;;;;;;9.00;1.00;;;;;;;2.77;80.95;99746.45;106548;1271;25423;-57
2022/01/20 05:27:20;;;;;;;6.50;1.00;;;;;;;2.75;80.68;99738.30;106622;1270;22613;-58
2022/01/20 05:29:52;;;;;;;11.70;1.10;;;;;;;2.72;80.38;99740.98;106567;1271;22717;-56
2022/01/20 05:32:23;;;;;;;13.60;1.00;;;;;;;2.70;80.36;99743.88;106701;1270;25412;-58
2022/01/20 05:34:55;;;;;;;11.60;1.40;;;;;;;2.68;80.15;99744.95;106804;1270;25493;-57
2022/01/20 05:37:26;;;;;;;7.90;0.70;;;;;;;2.66;80.22;99742.10;106659;1271;22615;-59
2022/01/20 05:39:57;;;;;;;10.20;0.60;;;;;;;2.65;80.06;99751.18;106644;1271;24329;-55
2022/01/20 05:42:28;;;;;;;16.10;1.20;;;;;;;2.64;79.95;99749.41;106542;1271;23968;-59
2022/01/20 05:44:59;;;;;;;13.20;1.30;;;;;;;2.62;80.14;99752.14;106563;1271;23908;-58
2022/01/20 05:47:31;;;;;;;11.10;0.90;;;;;;;2.60;80.04;99751.34;106612;1271;25415;-58
2022/01/20 05:50:03;;;;;;;16.00;1.00;;;;;;;2.58;80.13;99757.06;106488;1270;22734;-57
2022/01/20 05:52:41;;;;;;;13.10;1.60;;;;;;;2.56;79.87;99761.05;106735;1271;25325;-58
2022/01/20 05:55:15;;;;;;;11.70;0.90;;;;;;;2.55;79.46;99750.91;106548;1270;24228;-59
2022/01/20 05:57:47;;;;;;;6.40;0.70;;;;;;;2.54;79.31;99750.64;106586;1270;26533;-58
2022/01/20 06:00:23;;;;;;;9.40;1.00;;;;;;;2.53;79.48;99751.29;106551;1270;22547;-59
2022/01/20 06:05:45;;;;;;;9.20;0.80;;;;;;;2.50;79.54;99749.97;106433;1270;22551;-60
2022/01/20 06:08:17;;;;;;;10.10;0.80;;;;;;;2.48;79.26;99754.02;106492;1271;22621;-62
2022/01/20 06:10:48;;;;;;;8.40;0.80;;;;;;;2.47;79.37;99754.83;106415;1271;22555;-59
2022/01/20 06:13:19;;;;;;;7.50;0.50;;;;;;;2.46;79.40;99753.85;106316;1271;25416;-61
2022/01/20 06:15:50;;;;;;;6.70;0.80;;;;;;;2.42;79.06;99761.45;106553;1268;26669;-61
2022/01/20 06:18:21;;;;;;;9.70;0.50;;;;;;;2.37;79.33;99760.45;106237;1270;24236;-60
2022/01/20 06:20:53;;;;;;;13.80;1.20;;;;;;;2.33;79.41;99756.96;106311;1269;22561;-60
2022/01/20 06:23:25;;;;;;;10.10;0.70;;;;;;;2.30;79.62;99763.80;106218;1271;23700;-60
2022/01/20 06:25:56;;;;;;;11.00;1.20;;;;;;;2.29;79.86;99759.27;106594;1271;22535;-58
2022/01/20 06:28:28;;;;;;;8.20;1.10;;;;;;;2.26;79.65;99750.39;106203;1270;22700;-57
2022/01/20 06:30:59;;;;;;;9.80;0.80;;;;;;;2.22;79.45;99737.50;106214;1271;25879;-58
2022/01/20 06:33:30;;;;;;;7.10;0.70;;;;;;;2.17;79.20;99734.57;106276;1270;22483;-57
2022/01/20 06:36:01;;;;;;;8.40;0.80;;;;;;;2.11;79.10;99735.70;106398;1271;25000;-59
2022/01/20 06:38:32;;;;;;;13.10;0.80;;;;;;;2.04;78.79;99729.20;106248;1271;25463;-58
2022/01/20 06:41:03;;;;;;;11.70;1.00;;;;;;;1.99;78.71;99716.50;106187;1271;26190;-61
2022/01/20 06:43:34;;;;;;;9.40;1.10;;;;;;;1.94;78.61;99723.48;106279;1271;25267;-59
2022/01/20 06:46:06;;;;;;;10.80;0.90;;;;;;;1.89;78.65;99727.14;106122;1271;25259;-59
2022/01/20 06:48:37;;;;;;;12.10;0.90;;;;;;;1.85;78.72;99724.09;106478;1270;22872;-58
2022/01/20 06:51:08;;;;;;;9.90;1.20;;;;;;;1.80;78.39;99715.58;106186;1270;22553;-60
2022/01/20 06:53:39;;;;;;;6.90;0.70;;;;;;;1.76;78.09;99717.16;106284;1271;24256;-54
2022/01/20 06:56:11;;;;;;;9.50;1.40;;;;;;;1.73;77.88;99720.17;106163;1271;22563;-60
2022/01/20 06:58:42;;;;;;;12.70;0.90;;;;;;;1.70;78.21;99717.32;106774;1270;22534;-60
2022/01/20 07:01:14;;;;;;;8.90;0.70;;;;;;;1.68;77.95;99721.23;106442;1270;25488;-58
2022/01/20 07:03:45;;;;;;;12.90;0.90;;;;;;;1.67;78.02;99719.52;106255;1271;22576;-57
2022/01/20 07:06:16;;;;;;;7.00;0.60;;;;;;;1.66;77.88;99711.85;106356;1271;25254;-59
2022/01/20 07:08:48;;;;;;;7.30;0.70;;;;;;;1.64;77.97;99712.36;106271;1270;24334;-58
2022/01/20 07:11:19;;;;;;;14.30;1.10;;;;;;;1.64;77.81;99712.67;106152;1270;23564;-59
2022/01/20 07:13:50;;;;;;;9.70;1.00;;;;;;;1.63;77.83;99706.27;106118;1271;25442;-59
2022/01/20 07:16:21;;;;;;;9.80;1.40;;;;;;;1.62;77.57;99711.02;106320;1270;25466;-56
2022/01/20 07:18:53;;;;;;;8.00;0.90;;;;;;;1.60;77.41;99707.58;106208;1270;22718;-58
2022/01/20 07:21:24;;;;;;;12.50;1.10;;;;;;;1.60;77.55;99697.77;106233;1270;26571;-58
2022/01/20 07:23:56;;;;;;;13.30;1.30;;;;;;;1.60;77.00;99693.52;106169;1270;24562;-60
2022/01/20 07:26:29;;;;;;;9.40;0.70;;;;;;;1.63;77.15;99684.33;107125;1269;22691;-59
2022/01/20 07:29:01;;;;;;;10.30;1.20;;;;;;;1.68;77.25;99687.44;106348;1271;24246;-59
2022/01/20 07:31:33;;;;;;;13.20;0.90;;;;;;;1.73;77.03;99688.10;106468;1270;25393;-56
2022/01/20 07:34:05;;;;;;;10.80;1.20;;;;;;;1.77;77.13;99682.23;106479;1271;22551;-58
2022/01/20 07:36:36;;;;;;;18.70;1.20;;;;;;;1.79;76.53;99670.39;106458;1270;25222;-58
2022/01/20 07:39:08;;;;;;;12.30;0.90;;;;;;;1.82;76.63;99664.96;106367;1270;24689;-59
2022/01/20 07:41:39;;;;;;;10.70;1.00;;;;;;;1.85;76.76;99662.77;106357;1270;22538;-58
2022/01/20 07:44:12;;;;;;;11.50;1.00;;;;;;;1.87;76.47;99656.59;106439;1270;25257;-60
2022/01/20 07:46:44;;;;;;;19.30;1.90;;;;;;;1.89;76.53;99651.03;106357;1270;22580;-61
2022/01/20 07:49:16;;;;;;;15.10;1.40;;;;;;;1.90;76.29;99654.61;106421;1270;23061;-57
2022/01/20 07:51:48;;;;;;;10.60;1.20;;;;;;;1.92;76.32;99654.70;106356;1270;22542;-58
2022/01/20 07:54:20;;;;;;;15.40;1.60;;;;;;;1.94;76.13;99661.42;106330;1270;22732;-60
2022/01/20 07:56:51;;;;;;;15.70;1.20;;;;;;;1.96;76.26;99655.21;106330;1270;22572;-57
2022/01/20 07:59:24;;;;;;;13.20;2.60;;;;;;;1.99;75.63;99660.48;106254;1270;22556;-59
2022/01/20 08:01:56;;;;;;;13.30;1.20;;;;;;;2.03;75.92;99650.31;106469;1271;24403;-59
2022/01/20 08:04:27;;;;;;;18.50;1.40;;;;;;;2.07;75.48;99657.20;106772;1270;22723;-60
2022/01/20 08:06:58;;;;;;;15.10;1.40;;;;;;;2.14;74.71;99660.30;106420;1271;25328;-58
2022/01/20 08:09:30;;;;;;;13.00;1.30;;;;;;;2.21;74.72;99650.13;106326;1270;25723;-59
2022/01/20 08:12:01;;;;;;;13.00;2.00;;;;;;;2.26;74.69;99651.24;106345;1270;22532;-56
2022/01/20 08:14:32;;;;;;;14.70;0.90;;;;;;;2.31;75.13;99654.09;106267;1270;22537;-55
2022/01/20 08:17:04;;;;;;;12.80;1.10;;;;;;;2.34;75.56;99651.33;106281;1270;22662;-60
2022/01/20 08:19:35;;;;;;;14.40;1.00;;;;;;;2.35;75.28;99656.23;106262;1270;24455;-58
2022/01/20 08:22:06;;;;;;;11.10;1.80;;;;;;;2.35;75.66;99661.66;106207;1271;22590;-58
2022/01/20 08:24:37;;;;;;;13.40;1.00;;;;;;;2.32;76.47;99662.14;106182;1270;22633;-58
2022/01/20 08:27:09;;;;;;;11.50;1.50;;;;;;;2.18;77.75;99667.50;106234;1270;22537;-58
2022/01/20 08:29:40;;;;;;;13.20;1.00;;;;;;;1.97;78.87;99674.40;106451;1270;25058;-59
2022/01/20 08:32:12;;;;;;;7.00;0.60;;;;;;;1.74;79.88;99693.16;106392;1270;22527;-58
2022/01/20 08:34:45;;;;;;;5.40;0.50;;;;;;;1.47;81.37;99731.80;106420;1270;22552;-57
2022/01/20 08:37:16;;;;;;;5.00;1.00;;;;;;;1.18;81.81;99752.38;106472;1270;22543;-58
2022/01/20 08:39:47;;;;;;;4.60;0.50;;;;;;;0.95;81.22;99748.81;106329;1270;25202;-59
2022/01/20 08:42:19;;;;;;;7.70;0.90;;;;;;;0.76;81.15;99751.10;106190;1270;22550;-58
2022/01/20 08:44:50;;;;;;;5.30;0.80;;;;;;;0.66;80.85;99757.27;106152;1270;25239;-58
2022/01/20 08:47:21;;;;;;;4.80;0.50;;;;;;;0.61;80.99;99761.64;106096;1270;22537;-59
2022/01/20 08:49:53;;;;;;;6.60;0.50;;;;;;;0.56;81.10;99745.16;106212;1271;22694;-57
2022/01/20 08:52:28;;;;;;;9.90;0.90;;;;;;;0.51;80.82;99743.85;106190;1270;25328;-59
2022/01/20 08:55:00;;;;;;;9.90;0.80;;;;;;;0.47;80.89;99752.70;106236;1270;24228;-57
2022/01/20 08:57:31;;;;;;;3.70;0.60;;;;;;;0.44;80.55;99753.09;106066;1270;22544;-58
2022/01/20 09:00:05;;;;;;;8.70;0.60;;;;;;;0.41;80.37;99752.45;106256;1271;24211;-59
2022/01/20 09:02:37;;;;;;;6.20;0.40;;;;;;;0.38;80.46;99752.27;106308;1270;25272;-58
2022/01/20 09:05:09;;;;;;;6.70;0.60;;;;;;;0.36;80.64;99759.52;106170;1270;22558;-60
2022/01/20 09:07:41;;;;;;;7.90;0.60;;;;;;;0.34;80.78;99755.33;106204;1270;24228;-58
2022/01/20 09:10:19;;;;;;;6.60;0.70;;;;;;;0.31;80.67;99754.74;106280;1270;26757;-59
2022/01/20 09:15:41;;;;;;;7.70;0.70;;;;;;;0.28;80.63;99756.70;105982;1270;22551;-59
2022/01/20 09:18:12;;;;;;;12.30;0.90;;;;;;;0.27;80.40;99766.60;106163;1270;26800;-55
2022/01/20 09:20:43;;;;;;;10.10;0.90;;;;;;;0.26;80.24;99777.45;106159;1270;25627;-58
2022/01/20 09:23:15;;;;;;;9.60;0.70;;;;;;;0.25;80.10;99772.20;106176;1270;22578;-55
2022/01/20 09:25:49;;;;;;;9.90;0.80;;;;;;;0.25;80.19;99780.67;105975;1270;24324;-58
2022/01/20 09:28:20;;;;;;;9.10;1.20;;;;;;;0.25;79.89;99785.23;106090;1270;22564;-55
2022/01/20 09:30:57;;;;;;;11.00;1.30;;;;;;;0.26;79.96;99783.17;106232;1271;22641;-57
2022/01/20 09:33:29;;;;;;;11.10;0.90;;;;;;;0.27;80.02;99786.30;106284;1270;22526;-59
2022/01/20 09:36:01;;;;;;;9.60;0.70;;;;;;;0.27;79.97;99789.90;106508;1270;22572;-57
2022/01/20 09:38:32;;;;;;;5.10;0.70;;;;;;;0.26;79.91;99793.29;106339;1270;24798;-56
2022/01/20 09:41:04;;;;;;;9.60;1.00;;;;;;;0.27;80.19;99778.85;106309;1270;25611;-58
2022/01/20 09:43:36;;;;;;;6.70;0.70;;;;;;;0.28;80.37;99780.71;106231;1271;22535;-58
2022/01/20 09:46:08;;;;;;;5.50;0.80;;;;;;;0.28;80.41;99775.22;106375;1270;24270;-57
2022/01/20 09:48:39;;;;;;;12.50;1.00;;;;;;;0.31;80.31;99785.90;106391;1270;22658;-62
2022/01/20 09:51:13;;;;;;;12.00;1.20;;;;;;;0.32;80.29;99790.91;106480;1271;23038;-58
2022/01/20 09:53:44;;;;;;;8.30;0.90;;;;;;;0.32;80.67;99815.06;106320;1270;22583;-56
2022/01/20 09:56:16;;;;;;;6.70;0.60;;;;;;;0.25;81.87;99845.63;106308;1271;22733;-56
2022/01/20 09:58:47;;;;;;;3.40;0.20;;;;;;;0.12;83.02;99842.01;106392;1271;24360;-57
2022/01/20 10:01:36;;;;;;;8.50;1.00;;;;;;;-0.08;84.91;99868.67;106204;1270;22558;-56
2022/01/20 10:04:18;;;;;;;2.40;0.40;;;;;;;-0.29;85.43;99870.88;106305;1270;22616;-54
2022/01/20 10:06:57;;;;;;;2.30;0.30;;;;;;;-0.46;83.85;99867.39;106318;1271;24408;-58
2022/01/20 10:09:36;;;;;;;4.00;0.20;;;;;;;-0.59;83.02;99857.77;106507;1270;25442;-58
2022/01/20 10:12:12;;;;;;;4.10;0.20;;;;;;;-0.66;82.66;99850.28;106486;1270;22803;-58
2022/01/20 10:14:44;;;;;;;3.60;0.40;;;;;;;-0.68;82.00;99848.34;106531;1270;24244;-58
2022/01/20 10:17:23;;;;;;;4.60;0.30;;;;;;;-0.69;80.78;99850.86;106621;1270;22556;-61
2022/01/20 10:19:57;;;;;;;4.10;0.40;;;;;;;-0.68;80.27;99857.12;106373;1269;24798;-59
2022/01/20 10:22:30;;;;;;;5.20;0.80;;;;;;;-0.64;80.12;99872.50;106521;1270;22557;-59
2022/01/20 10:25:04;;;;;;;6.80;0.40;;;;;;;-0.60;79.97;99856.30;106278;1270;24360;-61
2022/01/20 10:27:46;;;;;;;2.90;0.30;;;;;;;-0.54;79.84;99862.55;106358;1270;22622;-60
2022/01/20 10:30:17;;;;;;;2.60;0.30;;;;;;;-0.46;79.78;99868.24;106395;1271;25444;-61
2022/01/20 10:32:51;;;;;;;6.90;0.40;;;;;;;-0.43;78.46;99868.89;106231;1270;24234;-62
2022/01/20 10:35:31;;;;;;;4.40;0.40;;;;;;;-0.41;78.07;99873.11;106343;1270;22568;-62
2022/01/20 10:38:12;;;;;;;4.60;0.40;;;;;;;-0.42;77.42;99877.59;106497;1270;22498;-62
2022/01/20 10:40:51;;;;;;;4.50;0.50;;;;;;;-0.46;77.61;99874.20;106285;1270;24344;-62
2022/01/20 10:43:27;;;;;;;4.50;0.50;;;;;;;-0.52;77.69;99876.15;106294;1270;24814;-62
2022/01/20 10:46:06;;;;;;;6.60;0.50;;;;;;;-0.55;76.49;99882.40;106456;1270;22686;-62
2022/01/20 10:48:37;;;;;;;3.70;0.50;;;;;;;-0.55;76.33;99877.84;106475;1270;22554;-63
2022/01/20 10:51:20;;;;;;;5.90;0.60;;;;;;;-0.53;76.68;99872.98;106356;1269;24692;-62
2022/01/20 10:54:01;;;;;;;7.10;0.40;;;;;;;-0.50;76.14;99868.45;106358;1270;22683;-62
2022/01/20 10:56:37;;;;;;;10.30;0.50;;;;;;;-0.46;76.04;99872.86;106440;1270;22540;-62
2022/01/20 10:59:12;;;;;;;4.60;0.40;;;;;;;-0.42;75.81;99868.65;106391;1271;24238;-62
2022/01/20 11:01:43;;;;;;;6.60;0.40;;;;;;;-0.37;74.84;99873.52;106628;1270;22483;-62
2022/01/20 11:04:14;;;;;;;9.30;0.40;;;;;;;-0.33;74.85;99870.56;106293;1270;24028;-62
2022/01/20 11:06:45;;;;;;;3.90;0.50;;;;;;;-0.28;74.34;99873.14;106279;1270;22568;-62
2022/01/20 11:09:20;;;;;;;5.70;0.40;;;;;;;-0.23;74.75;99871.34;106384;1270;22560;-62
2022/01/20 11:11:52;;;;;;;8.30;0.70;;;;;;;-0.19;73.94;99879.59;106299;1271;22557;-61
2022/01/20 11:14:24;;;;;;;5.60;0.50;;;;;;;-0.17;73.95;99877.14;106384;1270;22536;-62
2022/01/20 11:16:55;;;;;;;5.50;0.60;;;;;;;-0.13;74.46;99873.79;106354;1270;22561;-62
2022/01/20 11:19:31;;;;;;;3.20;0.40;;;;;;;-0.11;74.18;99871.23;106446;1270;26036;-62
2022/01/20 11:22:11;;;;;;;7.30;0.60;;;;;;;-0.07;73.33;99866.55;106278;1270;22574;-64
2022/01/20 11:24:43;;;;;;;7.30;0.70;;;;;;;-0.05;73.18;99867.84;106361;1270;22496;-62
2022/01/20 11:27:15;;;;;;;8.50;0.60;;;;;;;-0.02;71.45;99876.50;106308;1270;22596;-62
2022/01/20 11:29:50;;;;;;;4.50;0.50;;;;;;;-0.01;71.63;99876.25;106203;1271;23033;-62
2022/01/20 11:32:25;;;;;;;7.00;0.40;;;;;;;0.01;70.70;99880.45;106208;1270;26623;-61
2022/01/20 11:35:04;;;;;;;7.40;0.60;;;;;;;0.04;71.24;99877.75;106234;1269;25398;-63
2022/01/20 11:37:39;;;;;;;9.30;0.50;;;;;;;0.06;71.05;99883.27;105947;1270;22719;-62
2022/01/20 11:40:17;;;;;;;4.60;0.40;;;;;;;0.07;71.22;99871.65;106346;1270;22745;-63
2022/01/20 11:43:03;;;;;;;4.80;0.40;;;;;;;0.07;69.32;99869.46;106323;1270;24313;-62
2022/01/20 11:45:37;;;;;;;8.50;0.40;;;;;;;0.06;69.41;99873.33;106218;1270;22613;-62
2022/01/20 11:48:17;;;;;;;3.80;0.40;;;;;;;0.07;69.77;99871.90;106269;1271;22544;-62
2022/01/20 11:51:01;;;;;;;6.20;0.60;;;;;;;0.09;70.77;99871.94;106196;1270;24788;-62
2022/01/20 11:53:32;;;;;;;7.50;0.80;;;;;;;0.13;69.86;99885.20;106189;1270;25554;-62
2022/01/20 11:56:05;;;;;;;6.50;0.60;;;;;;;0.14;68.21;99889.34;106520;1269;23266;-62
2022/01/20 11:58:36;;;;;;;6.20;1.00;;;;;;;0.19;68.87;99880.25;106305;1270;22492;-63
2022/01/20 12:01:10;;;;;;;8.00;0.70;;;;;;;0.22;67.92;99884.97;105979;1271;415846;-63
2022/01/20 12:03:53;;;;;;;6.00;0.80;;;;;;;0.23;69.34;99869.73;106244;1270;25613;-63
2022/01/20 12:06:25;;;;;;;3.90;0.50;;;;;;;0.24;68.98;99863.37;106248;1270;22537;-62
2022/01/20 12:08:59;;;;;;;6.60;0.50;;;;;;;0.26;69.05;99875.49;106526;1270;22690;-63
2022/01/20 12:11:40;;;;;;;2.50;0.40;;;;;;;0.28;68.75;99882.60;107248;1269;22554;-64
2022/01/20 12:14:12;;;;;;;6.80;0.90;;;;;;;0.30;69.30;99875.51;106592;1270;25267;-63
2022/01/20 12:16:44;;;;;;;4.80;0.60;;;;;;;0.31;68.93;99883.08;106403;1270;22624;-62
2022/01/20 12:19:15;;;;;;;4.70;0.30;;;;;;;0.33;68.24;99891.77;106354;1270;23066;-62
2022/01/20 12:21:50;;;;;;;8.00;0.90;;;;;;;0.34;66.45;99887.59;106337;1271;22554;-62
2022/01/20 12:24:22;;;;;;;3.70;0.50;;;;;;;0.35;67.52;99878.06;106565;1270;22707;-63
2022/01/20 12:26:57;;;;;;;9.40;0.90;;;;;;;0.40;67.01;99880.58;106378;1270;22778;-62
2022/01/20 12:29:38;;;;;;;9.40;0.80;;;;;;;0.46;67.55;99879.84;106128;1270;22567;-62
2022/01/20 12:32:15;;;;;;;10.00;0.50;;;;;;;0.50;66.54;99878.42;106402;1270;22564;-62
2022/01/20 12:34:56;;;;;;;6.20;0.50;;;;;;;0.51;66.49;99877.33;106317;1270;24023;-62
2022/01/20 12:37:37;;;;;;;8.10;0.40;;;;;;;0.50;66.55;99866.98;106391;1270;22480;-62
2022/01/20 12:40:19;;;;;;;7.70;0.60;;;;;;;0.49;66.44;99874.77;106307;1270;25374;-62
2022/01/20 12:42:51;;;;;;;8.10;0.80;;;;;;;0.49;67.27;99871.33;106436;1271;22637;-62
2022/01/20 12:48:19;;;;;;;5.90;0.60;;;;;;;0.49;66.72;99890.71;106235;1270;22555;-62
2022/01/20 12:50:59;;;;;;;4.20;0.50;;;;;;;0.49;66.39;99893.54;106339;1270;22574;-62